createdAt,value
2018-08-14T00:00:13.944Z,96739
2018-08-14T00:01:29.977Z,96740
2018-08-14T00:02:46.837Z,96740
2018-08-14T00:04:02.758Z,96737
2018-08-14T00:05:18.832Z,96738
2018-08-14T00:06:34.827Z,96737
2018-08-14T00:07:50.960Z,96742
2018-08-14T00:09:06.897Z,96737
2018-08-14T00:10:22.910Z,96739
2018-08-14T00:11:38.906Z,96738
2018-08-14T00:12:54.983Z,96742
2018-08-14T00:14:11.037Z,96742
2018-08-14T00:15:26.946Z,96734
2018-08-14T00:16:42.912Z,96737
2018-08-14T00:17:59.110Z,96736
2018-08-14T00:19:15.134Z,96735
2018-08-14T00:20:31.221Z,96736
2018-08-14T00:21:47.334Z,96729
2018-08-14T00:23:03.394Z,96739
2018-08-14T00:24:19.438Z,96733
2018-08-14T00:25:35.348Z,96739
2018-08-14T00:26:51.366Z,96738
2018-08-14T00:28:07.348Z,96744
2018-08-14T00:29:23.289Z,96744
2018-08-14T00:30:39.406Z,96741
2018-08-14T00:31:55.352Z,96738
2018-08-14T00:33:11.379Z,96738
2018-08-14T00:34:27.377Z,96740
2018-08-14T00:35:43.368Z,96744
2018-08-14T00:36:59.418Z,96741
2018-08-14T00:38:15.431Z,96745
2018-08-14T00:39:31.417Z,96749
2018-08-14T00:40:47.346Z,96751
2018-08-14T00:42:03.386Z,96753
2018-08-14T00:43:19.547Z,96752
2018-08-14T00:44:35.640Z,96755
2018-08-14T00:45:51.602Z,96745
2018-08-14T00:47:07.530Z,96748
2018-08-14T00:48:23.553Z,96748
2018-08-14T00:49:39.510Z,96747
2018-08-14T00:50:55.526Z,96745
2018-08-14T00:52:11.476Z,96743
2018-08-14T00:53:27.456Z,96743
2018-08-14T00:54:44.551Z,96745
2018-08-14T00:56:00.662Z,96739
2018-08-14T00:57:16.607Z,96742
2018-08-14T00:58:32.724Z,96741
2018-08-14T00:59:48.790Z,96738
2018-08-14T01:01:05.007Z,96739
2018-08-14T01:02:20.987Z,96736
2018-08-14T01:03:37.001Z,96741
2018-08-14T01:04:53.128Z,96744
2018-08-14T01:06:09.110Z,96739
2018-08-14T01:07:25.247Z,96741
2018-08-14T01:08:41.309Z,96737
2018-08-14T01:09:57.367Z,96737
2018-08-14T01:11:13.526Z,96742
2018-08-14T01:12:29.488Z,96739
2018-08-14T01:13:45.487Z,96739
2018-08-14T01:15:01.590Z,96739
2018-08-14T01:16:17.689Z,96741
2018-08-14T01:17:33.900Z,96746
2018-08-14T01:18:49.988Z,96740
2018-08-14T01:20:05.968Z,96742
2018-08-14T01:21:21.972Z,96748
2018-08-14T01:22:37.986Z,96743
2018-08-14T01:23:54.079Z,96741
2018-08-14T01:25:10.079Z,96742
2018-08-14T01:26:26.039Z,96743
2018-08-14T01:27:42.154Z,96741
2018-08-14T01:28:58.185Z,96745
2018-08-14T01:30:14.197Z,96741
2018-08-14T01:31:30.174Z,96738
2018-08-14T01:32:46.203Z,96737
2018-08-14T01:34:02.173Z,96736
2018-08-14T01:35:18.511Z,96733
2018-08-14T01:36:34.456Z,96738
2018-08-14T01:37:50.617Z,96741
2018-08-14T01:39:06.561Z,96739
2018-08-14T01:40:22.517Z,96743
2018-08-14T01:41:38.565Z,96739
2018-08-14T01:42:54.660Z,96738
2018-08-14T01:44:11.595Z,96741
2018-08-14T01:45:27.551Z,96739
2018-08-14T01:46:43.677Z,96739
2018-08-14T01:47:59.653Z,96743
2018-08-14T01:49:16.317Z,96740
2018-08-14T01:50:32.280Z,96740
2018-08-14T01:51:48.237Z,96743
2018-08-14T01:53:04.197Z,96743
2018-08-14T01:54:20.247Z,96741
2018-08-14T01:55:36.352Z,96743
2018-08-14T01:56:53.202Z,96742
2018-08-14T01:58:09.166Z,96744
2018-08-14T01:59:25.122Z,96749
2018-08-14T02:00:41.223Z,96750
2018-08-14T02:01:57.282Z,96749
2018-08-14T02:03:13.238Z,96748
2018-08-14T02:04:29.232Z,96746
2018-08-14T02:05:45.303Z,96741
2018-08-14T02:07:01.413Z,96747
2018-08-14T02:08:17.421Z,96750
2018-08-14T02:09:33.369Z,96749
2018-08-14T02:10:49.366Z,96749
2018-08-14T02:12:05.319Z,96749
2018-08-14T02:13:21.253Z,96751
2018-08-14T02:14:37.213Z,96750
2018-08-14T02:15:53.463Z,96751
2018-08-14T02:17:09.513Z,96749
2018-08-14T02:18:25.603Z,96748
2018-08-14T02:19:41.555Z,96746
2018-08-14T02:20:57.556Z,96749
2018-08-14T02:22:13.513Z,96749
2018-08-14T02:23:29.574Z,96743
2018-08-14T02:24:45.752Z,96743
2018-08-14T02:26:01.834Z,96746
2018-08-14T02:27:17.785Z,96745
2018-08-14T02:28:34.643Z,96742
2018-08-14T02:29:50.893Z,96741
2018-08-14T02:31:06.908Z,96743
2018-08-14T02:32:23.064Z,96743
2018-08-14T02:33:39.586Z,96744
2018-08-14T02:34:55.591Z,96738
2018-08-14T02:36:11.634Z,96738
2018-08-14T02:37:27.583Z,96738
2018-08-14T02:38:43.767Z,96738
2018-08-14T02:39:59.715Z,96737
2018-08-14T02:41:15.807Z,96739
2018-08-14T02:42:31.924Z,96738
2018-08-14T02:43:47.965Z,96737
2018-08-14T02:45:04.176Z,96743
2018-08-14T02:46:20.124Z,96741
2018-08-14T02:47:36.156Z,96739
2018-08-14T02:48:52.228Z,96740
2018-08-14T02:50:08.336Z,96742
2018-08-14T02:51:24.296Z,96745
2018-08-14T02:52:40.290Z,96745
2018-08-14T02:53:56.409Z,96748
2018-08-14T02:55:13.518Z,96746
2018-08-14T02:56:29.518Z,96743
2018-08-14T02:57:45.645Z,96740
2018-08-14T02:59:01.663Z,96744
2018-08-14T03:00:17.603Z,96740
2018-08-14T03:01:33.604Z,96747
2018-08-14T03:02:49.572Z,96753
2018-08-14T03:04:05.570Z,96751
2018-08-14T03:05:21.523Z,96755
2018-08-14T03:06:37.513Z,96752
2018-08-14T03:07:53.464Z,96755
2018-08-14T03:09:09.426Z,96755
2018-08-14T03:10:25.559Z,96756
2018-08-14T03:11:41.746Z,96755
2018-08-14T03:12:57.844Z,96760
2018-08-14T03:14:13.924Z,96754
2018-08-14T03:15:29.861Z,96754
2018-08-14T03:16:45.833Z,96760
2018-08-14T03:18:01.841Z,96760
2018-08-14T03:19:17.916Z,96762
2018-08-14T03:20:33.884Z,96761
2018-08-14T03:21:49.830Z,96763
2018-08-14T03:23:05.975Z,96762
2018-08-14T03:24:22.092Z,96765
2018-08-14T03:25:38.016Z,96761
2018-08-14T03:28:34.834Z,96761
2018-08-14T03:29:50.797Z,96762
2018-08-14T03:31:06.852Z,96761
2018-08-14T03:32:22.827Z,96757
2018-08-14T03:33:38.951Z,96754
2018-08-14T03:34:54.981Z,96761
2018-08-14T03:36:10.918Z,96761
2018-08-14T03:37:27.009Z,96763
2018-08-14T03:38:43.087Z,96765
2018-08-14T03:39:59.074Z,96765
2018-08-14T03:41:15.053Z,96771
2018-08-14T03:42:31.180Z,96772
2018-08-14T03:43:47.198Z,96774
2018-08-14T03:45:03.217Z,96768
2018-08-14T03:46:19.208Z,96771
2018-08-14T03:47:35.147Z,96765
2018-08-14T03:48:51.225Z,96760
2018-08-14T03:50:07.317Z,96759
2018-08-14T03:51:23.289Z,96760
2018-08-14T03:52:40.839Z,96765
2018-08-14T03:53:56.765Z,96767
2018-08-14T03:55:12.816Z,96774
2018-08-14T03:56:29.485Z,96770
2018-08-14T03:57:45.509Z,96776
2018-08-14T03:59:01.802Z,96772
2018-08-14T04:00:17.777Z,96777
2018-08-14T04:01:33.783Z,96777
2018-08-14T04:02:49.789Z,96778
2018-08-14T04:04:05.714Z,96779
2018-08-14T04:05:21.713Z,96778
2018-08-14T04:06:38.617Z,96784
2018-08-14T04:07:54.607Z,96789
2018-08-14T04:09:10.567Z,96786
2018-08-14T04:10:26.490Z,96789
2018-08-14T04:11:42.485Z,96790
2018-08-14T04:12:58.613Z,96786
2018-08-14T04:14:14.663Z,96791
2018-08-14T04:15:31.181Z,96787
2018-08-14T04:16:47.284Z,96790
2018-08-14T04:18:03.219Z,96790
2018-08-14T04:19:19.229Z,96794
2018-08-14T04:20:35.135Z,96793
2018-08-14T04:21:51.140Z,96792
2018-08-14T04:23:07.097Z,96799
2018-08-14T04:24:23.192Z,96798
2018-08-14T04:25:39.212Z,96802
2018-08-14T04:26:55.166Z,96799
2018-08-14T04:28:11.264Z,96800
2018-08-14T04:29:27.213Z,96800
2018-08-14T04:30:43.185Z,96796
2018-08-14T04:31:59.240Z,96806
2018-08-14T04:33:15.207Z,96805
2018-08-14T04:34:31.254Z,96805
2018-08-14T04:35:47.304Z,96808
2018-08-14T04:37:03.329Z,96802
2018-08-14T04:38:19.903Z,96804
2018-08-14T04:39:35.399Z,96810
2018-08-14T04:40:51.408Z,96814
2018-08-14T04:42:07.441Z,96815
2018-08-14T04:43:23.420Z,96820
2018-08-14T04:44:39.489Z,96817
2018-08-14T04:45:55.749Z,96816
2018-08-14T04:47:11.630Z,96822
2018-08-14T04:48:27.570Z,96818
2018-08-14T04:49:43.502Z,96820
2018-08-14T04:51:00.415Z,96818
2018-08-14T04:52:16.280Z,96823
2018-08-14T04:53:32.336Z,96825
2018-08-14T04:54:48.316Z,96825
2018-08-14T04:56:04.230Z,96828
2018-08-14T04:57:20.101Z,96834
2018-08-14T04:58:36.978Z,96832
2018-08-14T04:59:52.902Z,96837
2018-08-14T05:01:08.868Z,96832
2018-08-14T05:02:25.322Z,96831
2018-08-14T05:03:41.307Z,96832
2018-08-14T05:04:57.223Z,96836
2018-08-14T05:06:13.150Z,96840
2018-08-14T05:07:29.119Z,96841
2018-08-14T05:08:45.175Z,96842
2018-08-14T05:10:01.107Z,96843
2018-08-14T05:11:17.064Z,96846
2018-08-14T05:12:33.003Z,96848
2018-08-14T05:13:48.977Z,96850
2018-08-14T05:15:04.950Z,96854
2018-08-14T05:16:20.947Z,96858
2018-08-14T05:17:36.925Z,96856
2018-08-14T05:18:52.844Z,96859
2018-08-14T05:20:08.772Z,96858
2018-08-14T05:21:24.734Z,96860
2018-08-14T05:22:40.842Z,96861
2018-08-14T05:23:56.821Z,96860
2018-08-14T05:25:12.806Z,96866
2018-08-14T05:26:28.752Z,96868
2018-08-14T05:27:44.801Z,96869
2018-08-14T05:29:00.816Z,96871
2018-08-14T05:30:16.718Z,96870
2018-08-14T05:31:32.594Z,96866
2018-08-14T05:32:48.631Z,96871
2018-08-14T05:34:05.379Z,96876
2018-08-14T05:35:21.459Z,96876
2018-08-14T05:36:37.593Z,96882
2018-08-14T05:37:53.762Z,96883
2018-08-14T05:39:09.756Z,96886
2018-08-14T05:40:26.643Z,96886
2018-08-14T05:41:42.551Z,96884
2018-08-14T05:42:58.507Z,96885
2018-08-14T05:44:14.549Z,96887
2018-08-14T05:45:30.504Z,96889
2018-08-14T05:46:46.526Z,96892
2018-08-14T05:48:02.665Z,96893
2018-08-14T05:49:18.704Z,96893
2018-08-14T05:50:34.650Z,96893
2018-08-14T05:51:50.647Z,96899
2018-08-14T05:53:06.799Z,96895
2018-08-14T05:54:22.698Z,96897
2018-08-14T05:55:38.826Z,96899
2018-08-14T05:56:54.763Z,96898
2018-08-14T05:58:10.711Z,96895
2018-08-14T05:59:26.697Z,96897
2018-08-14T06:00:42.611Z,96891
2018-08-14T06:01:58.542Z,96892
2018-08-14T06:03:14.615Z,96892
2018-08-14T06:04:30.634Z,96897
2018-08-14T06:05:46.604Z,96898
2018-08-14T06:07:02.596Z,96900
2018-08-14T06:08:18.570Z,96899
2018-08-14T06:09:34.510Z,96898
2018-08-14T06:10:50.493Z,96898
2018-08-14T06:12:06.490Z,96901
2018-08-14T06:13:22.444Z,96902
2018-08-14T06:14:38.775Z,96904
2018-08-14T06:15:56.596Z,96899
2018-08-14T06:17:12.596Z,96904
2018-08-14T06:18:28.556Z,96905
2018-08-14T06:19:44.513Z,96904
2018-08-14T06:21:00.465Z,96900
2018-08-14T06:22:16.381Z,96909
2018-08-14T06:23:32.349Z,96913
2018-08-14T06:24:48.266Z,96912
2018-08-14T06:26:04.328Z,96915
2018-08-14T06:27:20.315Z,96917
2018-08-14T06:28:36.424Z,96915
2018-08-14T06:29:52.300Z,96920
2018-08-14T06:31:08.205Z,96920
2018-08-14T06:32:24.189Z,96920
2018-08-14T06:33:40.109Z,96920
2018-08-14T06:34:56.042Z,96922
2018-08-14T06:36:11.961Z,96926
2018-08-14T06:37:28.009Z,96923
2018-08-14T06:38:43.955Z,96923
2018-08-14T06:39:59.978Z,96923
2018-08-14T06:41:16.007Z,96916
2018-08-14T06:42:31.834Z,96922
2018-08-14T06:43:47.817Z,96924
2018-08-14T06:45:03.730Z,96925
2018-08-14T06:46:19.795Z,96921
2018-08-14T06:47:35.890Z,96921
2018-08-14T06:48:51.878Z,96920
2018-08-14T06:50:07.754Z,96920
2018-08-14T06:51:23.770Z,96918
2018-08-14T06:52:39.715Z,96922
2018-08-14T06:53:55.708Z,96919
2018-08-14T06:55:11.604Z,96923
2018-08-14T06:56:27.669Z,96927
2018-08-14T06:57:43.696Z,96925
2018-08-14T06:58:59.683Z,96926
2018-08-14T07:00:15.648Z,96928
2018-08-14T07:01:31.608Z,96927
2018-08-14T07:02:47.603Z,96930
2018-08-14T07:04:03.528Z,96932
2018-08-14T07:05:19.472Z,96934
2018-08-14T07:06:35.473Z,96938
2018-08-14T07:07:51.475Z,96939
2018-08-14T07:09:07.378Z,96944
2018-08-14T07:10:23.374Z,96944
2018-08-14T07:11:39.336Z,96940
2018-08-14T07:12:55.309Z,96941
2018-08-14T07:14:11.232Z,96946
2018-08-14T07:15:27.246Z,96948
2018-08-14T07:16:43.233Z,96950
2018-08-14T07:19:39.678Z,96948
2018-08-14T07:20:55.773Z,96952
2018-08-14T07:22:11.698Z,96948
2018-08-14T07:23:27.704Z,96948
2018-08-14T07:24:43.635Z,96950
2018-08-14T07:25:59.589Z,96949
2018-08-14T07:27:15.570Z,96945
2018-08-14T07:28:31.563Z,96945
2018-08-14T07:29:47.606Z,96946
2018-08-14T07:31:03.657Z,96948
2018-08-14T07:32:19.589Z,96950
2018-08-14T07:33:35.535Z,96949
2018-08-14T07:34:51.701Z,96951
2018-08-14T07:36:07.745Z,96950
2018-08-14T07:37:23.682Z,96951
2018-08-14T07:38:39.730Z,96950
2018-08-14T07:39:55.747Z,96951
2018-08-14T07:41:11.725Z,96952
2018-08-14T07:42:27.704Z,96954
2018-08-14T07:43:43.629Z,96955
2018-08-14T07:44:59.616Z,96954
2018-08-14T07:46:15.548Z,96951
2018-08-14T07:47:31.628Z,96952
2018-08-14T07:48:47.605Z,96951
2018-08-14T07:50:03.581Z,96954
2018-08-14T07:51:19.521Z,96954
2018-08-14T07:52:35.499Z,96959
2018-08-14T07:53:51.553Z,96957
2018-08-14T07:55:07.622Z,96959
2018-08-14T07:56:23.622Z,96954
2018-08-14T07:57:39.614Z,96960
2018-08-14T07:58:55.638Z,96960
2018-08-14T08:00:11.689Z,96960
2018-08-14T08:01:27.575Z,96959
2018-08-14T08:02:43.552Z,96963
2018-08-14T08:03:59.570Z,96966
2018-08-14T08:05:15.473Z,96970
2018-08-14T08:06:31.461Z,96968
2018-08-14T08:07:47.394Z,96974
2018-08-14T08:09:03.395Z,96972
2018-08-14T08:10:19.347Z,96975
2018-08-14T08:11:35.342Z,96968
2018-08-14T08:12:51.331Z,96972
2018-08-14T08:14:07.406Z,96969
2018-08-14T08:15:23.331Z,96973
2018-08-14T08:16:39.260Z,96972
2018-08-14T08:17:55.269Z,96971
2018-08-14T08:19:11.193Z,96972
2018-08-14T08:20:27.129Z,96977
2018-08-14T08:21:43.066Z,96971
2018-08-14T08:22:59.051Z,96965
2018-08-14T08:24:15.925Z,96971
2018-08-14T08:25:31.842Z,96966
2018-08-14T08:26:47.759Z,96970
2018-08-14T08:28:03.690Z,96973
2018-08-14T08:29:19.626Z,96974
2018-08-14T08:30:35.648Z,96976
2018-08-14T08:31:51.812Z,96977
2018-08-14T08:33:07.729Z,96975
2018-08-14T08:34:23.683Z,96975
2018-08-14T08:35:39.572Z,96974
2018-08-14T08:36:55.531Z,96970
2018-08-14T08:38:11.561Z,96972
2018-08-14T08:39:27.680Z,96966
2018-08-14T08:40:43.688Z,96970
2018-08-14T08:41:59.735Z,96974
2018-08-14T08:43:15.732Z,96971
2018-08-14T08:44:31.728Z,96973
2018-08-14T08:45:47.587Z,96974
2018-08-14T08:47:03.643Z,96977
2018-08-14T08:48:19.570Z,96980
2018-08-14T08:49:35.471Z,96983
2018-08-14T08:50:52.151Z,96980
2018-08-14T08:52:08.032Z,96980
2018-08-14T08:53:23.966Z,96977
2018-08-14T08:54:39.919Z,96969
2018-08-14T08:55:55.820Z,96978
2018-08-14T08:57:11.815Z,96982
2018-08-14T08:58:28.000Z,96979
2018-08-14T08:59:44.113Z,96979
2018-08-14T09:01:00.064Z,96982
2018-08-14T09:02:16.007Z,96983
2018-08-14T09:03:31.926Z,96983
2018-08-14T09:04:47.821Z,96980
2018-08-14T09:06:03.812Z,96986
2018-08-14T09:07:19.730Z,96979
2018-08-14T09:08:35.657Z,96981
2018-08-14T09:09:51.861Z,96977
2018-08-14T09:11:07.789Z,96981
2018-08-14T09:12:23.793Z,96974
2018-08-14T09:13:39.703Z,96973
2018-08-14T09:14:55.664Z,96975
2018-08-14T09:16:11.647Z,96975
2018-08-14T09:17:27.655Z,96978
2018-08-14T09:18:43.638Z,96976
2018-08-14T09:19:59.575Z,96977
2018-08-14T09:21:15.795Z,96980
2018-08-14T09:22:31.753Z,96976
2018-08-14T09:23:47.695Z,96984
2018-08-14T09:25:04.643Z,96981
2018-08-14T09:26:20.638Z,96985
2018-08-14T09:27:36.587Z,96987
2018-08-14T09:28:52.516Z,96985
2018-08-14T09:30:08.440Z,96986
2018-08-14T09:31:24.360Z,96985
2018-08-14T09:32:40.275Z,96990
2018-08-14T09:33:56.228Z,96991
2018-08-14T09:35:12.137Z,96986
2018-08-14T09:36:28.154Z,96983
2018-08-14T09:37:44.266Z,96983
2018-08-14T09:39:00.243Z,96979
2018-08-14T09:40:16.196Z,96981
2018-08-14T09:41:32.090Z,96985
2018-08-14T09:42:48.013Z,96982
2018-08-14T09:44:03.932Z,96986
2018-08-14T09:45:19.954Z,96986
2018-08-14T09:46:36.039Z,96991
2018-08-14T09:47:52.002Z,96985
2018-08-14T09:49:07.941Z,96986
2018-08-14T09:50:23.947Z,96983
2018-08-14T09:51:39.972Z,96985
2018-08-14T09:52:55.900Z,96984
2018-08-14T09:54:11.834Z,96982
2018-08-14T09:55:28.627Z,96977
2018-08-14T09:56:44.571Z,96974
2018-08-14T09:58:00.532Z,96973
2018-08-14T09:59:16.651Z,96976
2018-08-14T10:00:32.597Z,96973
2018-08-14T10:01:48.649Z,96973
2018-08-14T10:03:04.588Z,96971
2018-08-14T10:04:20.629Z,96969
2018-08-14T10:05:36.699Z,96968
2018-08-14T10:06:52.658Z,96964
2018-08-14T10:08:08.585Z,96964
2018-08-14T10:09:24.513Z,96961
2018-08-14T10:10:40.451Z,96959
2018-08-14T10:11:56.420Z,96955
2018-08-14T10:13:12.333Z,96957
2018-08-14T10:14:28.337Z,96955
2018-08-14T10:15:44.265Z,96949
2018-08-14T10:17:00.190Z,96957
2018-08-14T10:18:16.280Z,96953
2018-08-14T10:19:32.365Z,96948
2018-08-14T10:20:48.378Z,96950
2018-08-14T10:22:04.243Z,96949
2018-08-14T10:23:20.167Z,96950
2018-08-14T10:24:36.124Z,96951
2018-08-14T10:25:52.074Z,96949
2018-08-14T10:27:08.025Z,96953
2018-08-14T10:28:23.954Z,96952
2018-08-14T10:29:39.901Z,96951
2018-08-14T10:30:55.829Z,96956
2018-08-14T10:32:11.734Z,96966
2018-08-14T10:33:27.695Z,96962
2018-08-14T10:34:43.719Z,96964
2018-08-14T10:35:59.651Z,96964
2018-08-14T10:37:15.688Z,96961
2018-08-14T10:38:31.682Z,96958
2018-08-14T10:39:47.665Z,96957
2018-08-14T10:41:03.539Z,96959
2018-08-14T10:42:19.411Z,96957
2018-08-14T10:43:35.335Z,96951
2018-08-14T10:44:51.257Z,96951
2018-08-14T10:46:07.204Z,96953
2018-08-14T10:47:23.186Z,96948
2018-08-14T10:48:39.099Z,96950
2018-08-14T10:49:55.039Z,96952
2018-08-14T10:51:10.967Z,96945
2018-08-14T10:52:26.876Z,96942
2018-08-14T10:53:42.838Z,96944
2018-08-14T10:54:58.868Z,96941
2018-08-14T10:56:14.873Z,96938
2018-08-14T10:57:30.824Z,96943
2018-08-14T10:58:46.859Z,96936
2018-08-14T11:00:02.727Z,96940
2018-08-14T11:01:18.675Z,96942
2018-08-14T11:02:34.579Z,96939
2018-08-14T11:03:50.622Z,96941
2018-08-14T11:05:06.618Z,96939
2018-08-14T11:06:22.566Z,96942
2018-08-14T11:07:38.518Z,96941
2018-08-14T11:08:54.456Z,96941
2018-08-14T11:10:10.566Z,96941
2018-08-14T11:11:26.521Z,96941
2018-08-14T11:12:42.500Z,96940
2018-08-14T11:13:58.545Z,96939
2018-08-14T11:15:14.492Z,96942
2018-08-14T11:16:30.512Z,96943
2018-08-14T11:17:46.366Z,96937
2018-08-14T11:19:02.294Z,96950
2018-08-14T11:20:18.311Z,96949
2018-08-14T11:21:34.502Z,96950
2018-08-14T11:22:50.446Z,96949
2018-08-14T11:24:06.380Z,96956
2018-08-14T11:25:22.332Z,96960
2018-08-14T11:26:38.250Z,96958
2018-08-14T11:27:54.215Z,96954
2018-08-14T11:29:10.107Z,96953
2018-08-14T11:30:26.036Z,96953
2018-08-14T11:31:41.949Z,96958
2018-08-14T11:32:57.904Z,96957
2018-08-14T11:34:13.817Z,96954
2018-08-14T11:35:29.732Z,96959
2018-08-14T11:36:45.695Z,96954
2018-08-14T11:38:01.731Z,96954
2018-08-14T11:40:59.584Z,96955
2018-08-14T11:42:15.509Z,96953
2018-08-14T11:43:31.587Z,96958
2018-08-14T11:44:47.613Z,96955
2018-08-14T11:46:03.619Z,96954
2018-08-14T11:47:20.429Z,96954
2018-08-14T11:48:36.484Z,96955
2018-08-14T11:49:52.439Z,96955
2018-08-14T11:51:08.406Z,96958
2018-08-14T11:52:24.361Z,96958
2018-08-14T11:53:40.532Z,96962
2018-08-14T11:54:56.586Z,96965
2018-08-14T11:56:12.642Z,96964
2018-08-14T11:57:28.621Z,96968
2018-08-14T11:58:44.539Z,96970
2018-08-14T12:00:00.465Z,96971
2018-08-14T12:01:16.399Z,96973
2018-08-14T12:02:32.385Z,96971
2018-08-14T12:03:48.332Z,96976
2018-08-14T12:05:04.491Z,96983
2018-08-14T12:06:20.564Z,96985
2018-08-14T12:07:36.494Z,96985
2018-08-14T12:08:52.422Z,96988
2018-08-14T12:10:08.391Z,96992
2018-08-14T12:11:24.315Z,96986
2018-08-14T12:12:40.258Z,96984
2018-08-14T12:13:56.314Z,96978
2018-08-14T12:15:12.259Z,96979
2018-08-14T12:16:28.497Z,96976
2018-08-14T12:17:44.615Z,96976
2018-08-14T12:19:00.669Z,96976
2018-08-14T12:20:16.584Z,96976
2018-08-14T12:23:13.272Z,96965
2018-08-14T12:24:29.477Z,96961
2018-08-14T12:25:45.599Z,96957
2018-08-14T12:27:01.547Z,96951
2018-08-14T12:28:17.529Z,96953
2018-08-14T12:29:33.468Z,96952
2018-08-14T12:30:49.423Z,96952
2018-08-14T12:32:05.364Z,96955
2018-08-14T12:33:21.475Z,96958
2018-08-14T12:34:37.472Z,96956
2018-08-14T12:35:53.418Z,96960
2018-08-14T12:37:09.352Z,96963
2018-08-14T12:38:25.279Z,96962
2018-08-14T12:39:41.316Z,96962
2018-08-14T12:40:57.236Z,96961
2018-08-14T12:42:13.179Z,96963
2018-08-14T12:43:29.158Z,96960
2018-08-14T12:44:45.130Z,96963
2018-08-14T12:46:01.029Z,96961
2018-08-14T12:47:17.059Z,96963
2018-08-14T12:48:32.972Z,96965
2018-08-14T12:49:48.912Z,96961
2018-08-14T12:51:04.817Z,96960
2018-08-14T12:52:21.742Z,96962
2018-08-14T12:53:37.655Z,96969
2018-08-14T12:54:53.662Z,96965
2018-08-14T12:56:09.593Z,96960
2018-08-14T12:57:25.496Z,96959
2018-08-14T12:58:41.408Z,96959
2018-08-14T12:59:57.419Z,96959
2018-08-14T13:01:13.542Z,96955
2018-08-14T13:02:29.532Z,96956
2018-08-14T13:03:45.480Z,96956
2018-08-14T13:05:01.412Z,96957
2018-08-14T13:06:17.400Z,96956
2018-08-14T13:07:33.360Z,96959
2018-08-14T13:08:49.405Z,96962
2018-08-14T13:10:05.234Z,96964
2018-08-14T13:11:21.270Z,96961
2018-08-14T13:12:37.240Z,96957
2018-08-14T13:13:53.162Z,96956
2018-08-14T13:15:09.137Z,96956
2018-08-14T13:16:24.970Z,96953
2018-08-14T13:17:40.886Z,96956
2018-08-14T13:18:56.782Z,96952
2018-08-14T13:20:12.684Z,96955
2018-08-14T13:21:28.654Z,96957
2018-08-14T13:22:44.669Z,96955
2018-08-14T13:24:00.637Z,96953
2018-08-14T13:25:16.541Z,96954
2018-08-14T13:26:32.533Z,96955
2018-08-14T13:27:48.472Z,96958
2018-08-14T13:29:05.389Z,96958
2018-08-14T13:30:21.300Z,96956
2018-08-14T13:31:37.218Z,96952
2018-08-14T13:32:53.195Z,96949
2018-08-14T13:34:09.066Z,96950
2018-08-14T13:35:24.978Z,96954
2018-08-14T13:36:41.007Z,96948
2018-08-14T13:37:57.162Z,96952
2018-08-14T13:39:13.088Z,96952
2018-08-14T13:40:28.989Z,96950
2018-08-14T13:41:44.863Z,96953
2018-08-14T13:43:00.805Z,96950
2018-08-14T13:44:16.740Z,96948
2018-08-14T13:45:32.686Z,96948
2018-08-14T13:46:48.688Z,96953
2018-08-14T13:48:04.826Z,96952
2018-08-14T13:49:20.775Z,96955
2018-08-14T13:50:36.768Z,96953
2018-08-14T13:51:52.711Z,96957
2018-08-14T13:53:08.624Z,96956
2018-08-14T13:54:24.585Z,96953
2018-08-14T13:55:40.573Z,96958
2018-08-14T13:56:56.555Z,96964
2018-08-14T13:58:12.581Z,96960
2018-08-14T13:59:28.671Z,96962
2018-08-14T14:00:44.812Z,96970
2018-08-14T14:02:00.783Z,96966
2018-08-14T14:03:16.705Z,96970
2018-08-14T14:04:32.724Z,96968
2018-08-14T14:05:48.849Z,96967
2018-08-14T14:07:04.967Z,96968
2018-08-14T14:08:21.003Z,96965
2018-08-14T14:09:36.992Z,96970
2018-08-14T14:10:52.963Z,96973
2018-08-14T14:12:08.906Z,96967
2018-08-14T14:13:25.127Z,96966
2018-08-14T14:14:41.107Z,96966
2018-08-14T14:15:57.195Z,96966
2018-08-14T14:17:13.214Z,96974
2018-08-14T14:18:29.201Z,96970
2018-08-14T14:19:45.153Z,96972
2018-08-14T14:21:01.434Z,96975
2018-08-14T14:22:17.424Z,96975
2018-08-14T14:23:33.349Z,96979
2018-08-14T14:24:49.275Z,96978
2018-08-14T14:26:05.280Z,96988
2018-08-14T14:27:21.299Z,96987
2018-08-14T14:28:37.296Z,96990
2018-08-14T14:29:53.227Z,96982
2018-08-14T14:31:09.296Z,96979
2018-08-14T14:32:25.275Z,96982
2018-08-14T14:33:41.256Z,96982
2018-08-14T14:34:57.153Z,96980
2018-08-14T14:36:13.190Z,96984
2018-08-14T14:37:29.329Z,96984
2018-08-14T14:38:45.259Z,96987
2018-08-14T14:40:01.242Z,96989
2018-08-14T14:41:17.388Z,96991
2018-08-14T14:42:33.406Z,96987
2018-08-14T14:43:49.376Z,96994
2018-08-14T14:45:05.300Z,96986
2018-08-14T14:46:21.333Z,96989
2018-08-14T14:47:37.299Z,96990
2018-08-14T14:48:53.347Z,96989
2018-08-14T14:50:09.371Z,96989
2018-08-14T14:51:25.396Z,96988
2018-08-14T14:52:41.414Z,96987
2018-08-14T14:53:57.470Z,96987
2018-08-14T14:55:13.441Z,96980
2018-08-14T14:56:29.402Z,96980
2018-08-14T14:57:45.347Z,96977
2018-08-14T14:59:01.372Z,96980
2018-08-14T15:00:17.412Z,96983
2018-08-14T15:01:33.414Z,96983
2018-08-14T15:02:49.493Z,96983
2018-08-14T15:04:05.461Z,96988
2018-08-14T15:05:21.455Z,96983
2018-08-14T15:06:37.569Z,96994
2018-08-14T15:07:53.481Z,96991
2018-08-14T15:09:09.452Z,96987
2018-08-14T15:10:25.474Z,96987
2018-08-14T15:11:41.453Z,96985
2018-08-14T15:12:57.443Z,96991
2018-08-14T15:14:13.588Z,96990
2018-08-14T15:17:11.088Z,96984
2018-08-14T15:18:27.170Z,96984
2018-08-14T15:19:43.139Z,96983
2018-08-14T15:20:59.115Z,96984
2018-08-14T15:22:15.204Z,96981
2018-08-14T15:23:31.180Z,96981
2018-08-14T15:24:47.244Z,96977
2018-08-14T15:26:04.260Z,96982
2018-08-14T15:27:20.233Z,96983
2018-08-14T15:28:36.221Z,96979
2018-08-14T15:29:52.191Z,96979
2018-08-14T15:31:08.266Z,96981
2018-08-14T15:32:24.414Z,96983
2018-08-14T15:33:40.426Z,96986
2018-08-14T15:34:56.423Z,96976
2018-08-14T15:36:12.424Z,96974
2018-08-14T15:37:28.491Z,96972
2018-08-14T15:38:44.689Z,96978
2018-08-14T15:40:00.683Z,96985
2018-08-14T15:41:16.856Z,96987
2018-08-14T15:42:32.971Z,96984
2018-08-14T15:43:48.986Z,96984
2018-08-14T15:45:04.973Z,96978
2018-08-14T15:46:20.960Z,96981
2018-08-14T15:47:37.160Z,96982
2018-08-14T15:48:53.235Z,96985
2018-08-14T15:50:09.272Z,96983
2018-08-14T15:51:26.272Z,96980
2018-08-14T15:52:42.418Z,96984
2018-08-14T15:53:58.473Z,96982
2018-08-14T15:55:16.126Z,96976
2018-08-14T15:56:32.202Z,96976
2018-08-14T15:57:48.181Z,96976
2018-08-14T15:59:04.141Z,96975
2018-08-14T16:00:20.135Z,96978
2018-08-14T16:01:36.163Z,96976
2018-08-14T16:02:52.118Z,96984
2018-08-14T16:04:08.104Z,96982
2018-08-14T16:05:24.056Z,96983
2018-08-14T16:06:40.308Z,96987
2018-08-14T16:07:56.480Z,96984
2018-08-14T16:09:12.693Z,96984
2018-08-14T16:10:28.828Z,96979
2018-08-14T16:11:44.960Z,96981
2018-08-14T16:13:01.213Z,96978
2018-08-14T16:14:17.333Z,96977
2018-08-14T16:15:33.288Z,96980
2018-08-14T16:16:49.271Z,96980
2018-08-14T16:18:05.294Z,96978
2018-08-14T16:19:21.268Z,96975
2018-08-14T16:20:37.282Z,96976
2018-08-14T16:21:53.276Z,96979
2018-08-14T16:23:09.632Z,96982
2018-08-14T16:24:25.687Z,96983
2018-08-14T16:25:41.693Z,96983
2018-08-14T16:26:57.722Z,96978